Time;durP1;ratioP1;P1;durP2;ratioP2;P2;SDS_P1;SDS_P2;PMS_P1;PMS_P2;Temp;Humidity;BMP_temperature;BMP_pressure;BME280_temperature;BME280_humidity;BME280_pressure;Samples;Min_cycle;Max_cycle;Signal;HPM_P1;HPM_P2
2023/08/28 00:00:12;;;;;;;18.20;3.08;;;;;;;;;;5009120;28;20496;-54
2023/08/28 00:02:39;;;;;;;19.92;2.63;;;;;;;;;;5003537;28;20455;-51
2023/08/28 00:05:06;;;;;;;32.00;3.25;;;;;;;;;;5006508;28;20069;-44
2023/08/28 00:07:34;;;;;;;23.80;3.58;;;;;;;;;;5008955;28;20037;-44
2023/08/28 00:10:01;;;;;;;30.35;2.78;;;;;;;;;;5011270;28;20026;-47
2023/08/28 00:12:27;;;;;;;19.77;3.25;;;;;;;;;;5009013;28;20034;-53
2023/08/28 00:14:54;;;;;;;20.88;3.10;;;;;;;;;;5009897;28;20021;-46
2023/08/28 00:17:22;;;;;;;18.85;2.78;;;;;;;;;;5011088;28;20547;-43
2023/08/28 00:19:49;;;;;;;23.25;2.90;;;;;;;;;;5011071;28;20507;-46
2023/08/28 00:22:16;;;;;;;23.80;3.10;;;;;;;;;;5009568;28;20706;-49
2023/08/28 00:24:43;;;;;;;20.90;3.00;;;;;;;;;;5010914;28;20037;-44
2023/08/28 00:27:10;;;;;;;16.25;2.53;;;;;;;;;;5010855;28;20030;-45
2023/08/28 00:29:37;;;;;;;15.32;2.75;;;;;;;;;;5011032;28;20369;-46
2023/08/28 00:32:04;;;;;;;14.10;2.42;;;;;;;;;;5010681;28;20127;-43
2023/08/28 00:34:31;;;;;;;16.38;3.10;;;;;;;;;;5010851;28;20065;-44
2023/08/28 00:36:59;;;;;;;13.27;2.95;;;;;;;;;;5011217;28;20088;-46
2023/08/28 00:39:27;;;;;;;23.63;2.65;;;;;;;;;;5010612;28;20088;-46
2023/08/28 00:41:54;;;;;;;11.07;2.30;;;;;;;;;;5011004;28;20042;-46
2023/08/28 00:44:21;;;;;;;16.58;2.55;;;;;;;;;;5010742;28;20037;-46
2023/08/28 00:46:48;;;;;;;11.80;2.08;;;;;;;;;;5010822;28;20546;-44
2023/08/28 00:49:15;;;;;;;14.15;2.25;;;;;;;;;;5010863;28;20038;-45
2023/08/28 00:51:43;;;;;;;13.52;2.22;;;;;;;;;;5010910;28;20033;-44
2023/08/28 00:54:10;;;;;;;11.32;2.10;;;;;;;;;;4998058;28;20042;-44
2023/08/28 00:56:39;;;;;;;14.20;2.28;;;;;;;;;;5010797;28;20121;-46
2023/08/28 00:59:06;;;;;;;8.82;2.08;;;;;;;;;;5011627;28;20050;-46
2023/08/28 01:01:33;;;;;;;20.08;2.50;;;;;;;;;;5014241;28;20061;-52
2023/08/28 01:04:00;;;;;;;15.68;2.45;;;;;;;;;;5014364;28;20369;-46
2023/08/28 01:06:42;;;;;;;9.38;2.10;;;;;;;;;;5014394;28;20033;-48
2023/08/28 01:09:14;;;;;;;11.63;1.98;;;;;;;;;;5014274;28;20038;-45
2023/08/28 01:11:41;;;;;;;12.02;1.98;;;;;;;;;;5014151;28;20033;-49
2023/08/28 01:14:14;;;;;;;11.27;1.90;;;;;;;;;;5014360;28;20049;-45
2023/08/28 01:16:44;;;;;;;12.20;2.00;;;;;;;;;;5013980;28;20060;-44
2023/08/28 01:19:18;;;;;;;12.02;1.80;;;;;;;;;;5005912;28;20042;-47
2023/08/28 01:21:46;;;;;;;16.95;2.08;;;;;;;;;;5005168;28;20069;-40
2023/08/28 01:24:13;;;;;;;13.73;2.20;;;;;;;;;;5004528;28;20096;-57
2023/08/28 01:26:41;;;;;;;16.75;2.20;;;;;;;;;;5011741;28;20049;-57
2023/08/28 01:29:08;;;;;;;14.43;2.05;;;;;;;;;;5013804;28;20088;-57
2023/08/28 01:31:35;;;;;;;10.18;1.90;;;;;;;;;;5013855;28;20030;-56
2023/08/28 01:34:02;;;;;;;22.15;2.67;;;;;;;;;;5012743;28;20041;-49
2023/08/28 01:36:42;;;;;;;16.35;2.33;;;;;;;;;;5016207;28;20480;-46
2023/08/28 01:39:17;;;;;;;13.93;2.25;;;;;;;;;;5010727;28;20034;-48
2023/08/28 01:41:45;;;;;;;15.50;2.58;;;;;;;;;;5012633;28;20021;-53
2023/08/28 01:44:12;;;;;;;10.98;1.88;;;;;;;;;;5005382;28;20057;-50
2023/08/28 01:46:39;;;;;;;11.70;2.13;;;;;;;;;;5012005;28;20030;-45
2023/08/28 01:49:06;;;;;;;13.10;1.95;;;;;;;;;;5013282;28;20108;-47
2023/08/28 01:51:33;;;;;;;17.63;2.08;;;;;;;;;;5000739;28;20041;-47
2023/08/28 01:54:00;;;;;;;19.40;2.33;;;;;;;;;;5012993;28;20033;-50
2023/08/28 01:56:27;;;;;;;18.80;2.00;;;;;;;;;;5013373;28;20025;-49
2023/08/28 01:58:58;;;;;;;10.32;1.75;;;;;;;;;;5013479;28;20037;-53
2023/08/28 02:01:25;;;;;;;11.65;2.05;;;;;;;;;;5012471;28;20046;-53
2023/08/28 02:03:53;;;;;;;20.60;2.70;;;;;;;;;;5013208;28;20866;-53
2023/08/28 02:06:20;;;;;;;17.73;2.05;;;;;;;;;;5012830;28;20033;-53
2023/08/28 02:08:47;;;;;;;20.08;2.38;;;;;;;;;;5013104;28;20022;-49
2023/08/28 02:11:15;;;;;;;16.52;2.20;;;;;;;;;;5012851;28;20392;-50
2023/08/28 02:13:42;;;;;;;14.98;2.15;;;;;;;;;;5012790;28;20611;-51
2023/08/28 02:16:10;;;;;;;11.55;1.60;;;;;;;;;;5013169;28;20029;-50
2023/08/28 02:18:37;;;;;;;12.65;2.17;;;;;;;;;;5012694;28;20065;-51
2023/08/28 02:21:04;;;;;;;19.48;2.40;;;;;;;;;;5012992;28;20030;-48
2023/08/28 02:23:31;;;;;;;12.23;2.40;;;;;;;;;;5012738;28;20022;-48
2023/08/28 02:25:58;;;;;;;15.90;2.25;;;;;;;;;;5013008;28;20033;-48
2023/08/28 02:28:25;;;;;;;19.85;1.80;;;;;;;;;;5013043;28;20037;-47
2023/08/28 02:30:52;;;;;;;13.15;2.08;;;;;;;;;;5012581;28;20053;-47
2023/08/28 02:33:19;;;;;;;31.33;2.38;;;;;;;;;;5006141;28;20432;-50
2023/08/28 02:35:46;;;;;;;24.52;2.50;;;;;;;;;;5001153;28;20025;-49
2023/08/28 02:38:13;;;;;;;21.67;2.42;;;;;;;;;;5011621;28;20030;-52
2023/08/28 02:40:40;;;;;;;30.02;2.80;;;;;;;;;;5012552;28;20386;-46
2023/08/28 02:43:09;;;;;;;37.35;2.85;;;;;;;;;;5012379;28;20113;-49
2023/08/28 02:45:37;;;;;;;27.25;3.17;;;;;;;;;;5002139;28;20498;-55
2023/08/28 02:48:04;;;;;;;35.05;3.13;;;;;;;;;;5010954;28;20042;-56
2023/08/28 02:50:32;;;;;;;49.85;3.30;;;;;;;;;;5007727;28;20026;-54
2023/08/28 02:52:59;;;;;;;34.92;3.15;;;;;;;;;;4992718;28;20089;-56
2023/08/28 02:55:26;;;;;;;31.67;2.88;;;;;;;;;;4996290;28;20420;-55
2023/08/28 02:57:53;;;;;;;27.05;2.60;;;;;;;;;;5005637;28;20034;-49
2023/08/28 03:00:20;;;;;;;19.35;2.42;;;;;;;;;;4993903;28;20039;-52
2023/08/28 03:02:47;;;;;;;18.30;2.25;;;;;;;;;;4992773;28;20049;-50
2023/08/28 03:05:14;;;;;;;16.85;2.58;;;;;;;;;;4992739;28;20034;-53
2023/08/28 03:07:41;;;;;;;19.80;2.00;;;;;;;;;;4992939;28;20053;-54
2023/08/28 03:10:09;;;;;;;17.63;2.20;;;;;;;;;;4992705;28;20027;-52
2023/08/28 03:12:36;;;;;;;20.73;2.30;;;;;;;;;;4993038;28;20030;-53
2023/08/28 03:15:03;;;;;;;15.82;2.17;;;;;;;;;;4992745;28;20030;-52
2023/08/28 03:17:30;;;;;;;18.92;2.30;;;;;;;;;;4992665;28;20022;-50
2023/08/28 03:19:57;;;;;;;19.60;2.13;;;;;;;;;;4992606;28;20488;-54
2023/08/28 03:22:24;;;;;;;16.23;2.08;;;;;;;;;;4991858;28;20034;-52
2023/08/28 03:24:54;;;;;;;15.00;1.85;;;;;;;;;;4992446;28;20034;-53
2023/08/28 03:27:22;;;;;;;18.63;2.67;;;;;;;;;;4992508;28;20069;-54
2023/08/28 03:29:49;;;;;;;12.63;1.65;;;;;;;;;;4992474;28;20118;-53
2023/08/28 03:32:16;;;;;;;7.75;1.70;;;;;;;;;;4992407;28;20026;-52
2023/08/28 03:34:43;;;;;;;8.00;1.48;;;;;;;;;;5004308;28;20065;-52
2023/08/28 03:37:10;;;;;;;11.23;2.00;;;;;;;;;;5011933;28;20026;-51
2023/08/28 03:39:37;;;;;;;9.90;1.52;;;;;;;;;;5011817;28;20045;-53
2023/08/28 03:42:04;;;;;;;11.02;1.58;;;;;;;;;;5012045;28;20026;-51
2023/08/28 03:44:31;;;;;;;9.70;1.58;;;;;;;;;;5011866;28;20472;-53
2023/08/28 03:46:58;;;;;;;8.45;1.38;;;;;;;;;;5011641;28;20053;-50
2023/08/28 03:49:27;;;;;;;7.65;1.40;;;;;;;;;;5011928;28;20044;-54
2023/08/28 03:51:54;;;;;;;7.45;1.40;;;;;;;;;;5011880;28;20088;-51
2023/08/28 03:54:21;;;;;;;8.48;1.63;;;;;;;;;;5011984;28;20040;-54
2023/08/28 03:56:48;;;;;;;7.90;1.50;;;;;;;;;;5011885;28;20033;-52
2023/08/28 03:59:15;;;;;;;8.60;1.50;;;;;;;;;;5011690;28;20514;-53
2023/08/28 04:01:43;;;;;;;7.07;1.33;;;;;;;;;;5011817;28;20057;-52
2023/08/28 04:04:10;;;;;;;9.38;1.45;;;;;;;;;;5011975;28;20485;-54
2023/08/28 04:06:37;;;;;;;6.60;1.00;;;;;;;;;;5011598;28;20065;-52
2023/08/28 04:09:05;;;;;;;8.60;1.60;;;;;;;;;;5011410;28;20040;-53
2023/08/28 04:11:32;;;;;;;5.82;1.20;;;;;;;;;;5011581;28;20038;-59
2023/08/28 04:13:59;;;;;;;6.53;1.10;;;;;;;;;;5011696;28;20022;-56
2023/08/28 04:16:26;;;;;;;5.97;1.17;;;;;;;;;;5011701;28;20026;-58
2023/08/28 04:18:53;;;;;;;5.55;1.05;;;;;;;;;;5011595;28;20037;-58
2023/08/28 04:21:20;;;;;;;6.88;1.00;;;;;;;;;;5011648;28;20034;-58
2023/08/28 04:23:47;;;;;;;6.03;1.20;;;;;;;;;;5011547;28;20037;-58
2023/08/28 04:26:14;;;;;;;5.30;0.90;;;;;;;;;;5011587;28;20130;-56
2023/08/28 04:28:41;;;;;;;8.75;1.35;;;;;;;;;;4991924;28;20031;-57
2023/08/28 04:31:11;;;;;;;5.97;1.08;;;;;;;;;;4992080;28;20546;-59
2023/08/28 04:33:37;;;;;;;6.20;1.20;;;;;;;;;;4993473;28;20026;-58
2023/08/28 04:36:05;;;;;;;9.63;1.27;;;;;;;;;;4995639;28;20034;-58
2023/08/28 04:38:32;;;;;;;5.45;1.02;;;;;;;;;;4995647;28;20117;-58
2023/08/28 04:40:59;;;;;;;5.25;0.93;;;;;;;;;;4995491;28;20077;-58
2023/08/28 04:43:25;;;;;;;5.22;1.23;;;;;;;;;;4995591;28;20439;-58
2023/08/28 04:45:52;;;;;;;7.60;0.90;;;;;;;;;;4995546;28;20036;-57
2023/08/28 04:48:19;;;;;;;5.18;0.98;;;;;;;;;;5008011;28;20042;-58
2023/08/28 04:50:46;;;;;;;5.57;0.93;;;;;;;;;;5015163;28;20041;-55
2023/08/28 04:53:13;;;;;;;4.75;0.95;;;;;;;;;;5014963;28;20523;-57
2023/08/28 04:55:40;;;;;;;4.43;0.70;;;;;;;;;;5015017;28;20036;-57
2023/08/28 04:58:07;;;;;;;3.97;0.80;;;;;;;;;;5014937;28;20479;-57
2023/08/28 05:00:34;;;;;;;4.30;0.93;;;;;;;;;;5014882;28;20042;-59
2023/08/28 05:03:01;;;;;;;4.18;1.00;;;;;;;;;;5014870;28;20080;-57
2023/08/28 05:05:28;;;;;;;5.95;1.00;;;;;;;;;;5014815;28;20033;-57
2023/08/28 05:07:55;;;;;;;6.07;0.90;;;;;;;;;;5014765;28;20099;-57
2023/08/28 05:10:22;;;;;;;4.00;0.88;;;;;;;;;;5014766;28;20034;-59
2023/08/28 05:12:49;;;;;;;3.17;0.93;;;;;;;;;;5014684;28;20072;-58
2023/08/28 05:15:16;;;;;;;4.60;0.80;;;;;;;;;;5014594;28;20033;-57
2023/08/28 05:17:43;;;;;;;3.33;0.77;;;;;;;;;;5014509;28;20112;-58
2023/08/28 05:20:11;;;;;;;4.43;0.80;;;;;;;;;;5014481;28;20185;-58
2023/08/28 05:22:38;;;;;;;4.53;0.90;;;;;;;;;;5014432;28;20030;-58
2023/08/28 05:25:05;;;;;;;3.17;1.10;;;;;;;;;;5014396;28;20034;-60
2023/08/28 05:27:32;;;;;;;5.90;0.90;;;;;;;;;;5014349;28;20040;-58
2023/08/28 05:30:00;;;;;;;3.22;0.73;;;;;;;;;;5014379;28;20087;-58
2023/08/28 05:32:27;;;;;;;3.70;0.77;;;;;;;;;;5014331;28;20025;-56
2023/08/28 05:34:57;;;;;;;6.68;1.00;;;;;;;;;;5014244;28;20022;-59
2023/08/28 05:37:25;;;;;;;6.05;1.15;;;;;;;;;;5014015;28;20065;-57
2023/08/28 05:39:53;;;;;;;5.57;1.00;;;;;;;;;;5014184;28;20050;-58
2023/08/28 05:42:20;;;;;;;6.82;0.82;;;;;;;;;;5014037;28;20021;-56
2023/08/28 05:44:47;;;;;;;2.78;0.73;;;;;;;;;;5013362;28;20116;-59
2023/08/28 05:47:13;;;;;;;5.13;0.90;;;;;;;;;;5013908;28;20045;-58
2023/08/28 05:49:40;;;;;;;3.03;0.85;;;;;;;;;;5014017;28;20114;-57
2023/08/28 05:52:07;;;;;;;4.28;0.85;;;;;;;;;;5013924;28;20526;-59
2023/08/28 05:54:34;;;;;;;2.38;0.85;;;;;;;;;;5013883;28;20057;-57
2023/08/28 05:57:02;;;;;;;3.72;0.80;;;;;;;;;;5013898;28;20026;-57
2023/08/28 05:59:29;;;;;;;2.10;0.50;;;;;;;;;;5013628;28;20034;-57
2023/08/28 06:01:56;;;;;;;5.07;0.70;;;;;;;;;;5012355;28;20489;-57
2023/08/28 06:04:23;;;;;;;4.18;0.90;;;;;;;;;;5013626;28;20065;-57
2023/08/28 06:06:50;;;;;;;4.95;0.85;;;;;;;;;;5013748;28;20053;-58
2023/08/28 06:09:17;;;;;;;8.23;1.15;;;;;;;;;;5013643;28;20068;-58
2023/08/28 06:11:44;;;;;;;6.78;1.00;;;;;;;;;;5013520;28;20022;-57
2023/08/28 06:14:11;;;;;;;4.43;0.77;;;;;;;;;;5013476;28;20048;-57
2023/08/28 06:16:38;;;;;;;3.85;0.77;;;;;;;;;;5013573;28;20025;-58
2023/08/28 06:19:05;;;;;;;5.10;1.00;;;;;;;;;;5013413;28;20506;-58
2023/08/28 06:21:32;;;;;;;2.20;0.73;;;;;;;;;;5012732;28;20034;-50
2023/08/28 06:24:00;;;;;;;4.55;0.77;;;;;;;;;;5013054;28;20037;-49
2023/08/28 06:26:27;;;;;;;3.88;0.73;;;;;;;;;;5013282;28;20037;-56
2023/08/28 06:28:54;;;;;;;6.55;0.80;;;;;;;;;;5013138;28;20364;-53
2023/08/28 06:31:21;;;;;;;2.63;0.80;;;;;;;;;;5013105;28;20021;-52
2023/08/28 06:33:48;;;;;;;4.82;0.90;;;;;;;;;;5013056;28;20495;-51
2023/08/28 06:36:15;;;;;;;3.65;0.90;;;;;;;;;;5013011;28;20045;-57
2023/08/28 06:38:42;;;;;;;4.05;0.80;;;;;;;;;;5013108;28;20591;-57
2023/08/28 06:41:08;;;;;;;3.33;0.80;;;;;;;;;;5012999;28;20397;-57
2023/08/28 06:43:35;;;;;;;5.90;1.00;;;;;;;;;;5012869;28;20034;-58
2023/08/28 06:46:03;;;;;;;4.07;0.77;;;;;;;;;;5013003;28;20034;-58
2023/08/28 06:48:30;;;;;;;2.97;0.77;;;;;;;;;;5012785;28;20049;-56
2023/08/28 06:50:57;;;;;;;2.53;0.70;;;;;;;;;;5012891;28;20018;-56
2023/08/28 06:53:25;;;;;;;2.60;0.68;;;;;;;;;;5012657;28;20034;-59
2023/08/28 06:55:52;;;;;;;2.83;0.70;;;;;;;;;;5012634;28;20038;-57
2023/08/28 06:58:19;;;;;;;5.05;0.75;;;;;;;;;;5012210;28;20057;-56
2023/08/28 07:00:46;;;;;;;1.25;0.50;;;;;;;;;;5012644;28;20034;-58
2023/08/28 07:03:13;;;;;;;3.90;0.80;;;;;;;;;;5012468;28;20038;-57
2023/08/28 07:05:40;;;;;;;3.03;0.60;;;;;;;;;;5012624;28;20026;-57
2023/08/28 07:08:07;;;;;;;2.72;0.82;;;;;;;;;;5012591;28;20026;-58
2023/08/28 07:10:35;;;;;;;4.63;0.70;;;;;;;;;;5012626;28;20543;-58
2023/08/28 07:13:02;;;;;;;1.70;0.57;;;;;;;;;;5012433;28;20032;-57
2023/08/28 07:15:31;;;;;;;5.90;0.90;;;;;;;;;;5012307;28;20484;-58
2023/08/28 07:17:58;;;;;;;3.25;0.70;;;;;;;;;;5012309;28;20030;-58
2023/08/28 07:20:25;;;;;;;4.38;0.90;;;;;;;;;;5012378;28;20569;-59
2023/08/28 07:22:55;;;;;;;1.67;0.70;;;;;;;;;;5012215;28;20042;-57
2023/08/28 07:25:22;;;;;;;3.25;0.82;;;;;;;;;;5012336;28;20034;-58
2023/08/28 07:27:50;;;;;;;3.47;0.70;;;;;;;;;;5012219;28;20038;-58
2023/08/28 07:30:17;;;;;;;3.38;0.70;;;;;;;;;;5012255;28;20021;-56
2023/08/28 07:32:44;;;;;;;2.03;0.70;;;;;;;;;;5012390;28;20400;-58
2023/08/28 07:35:11;;;;;;;2.55;0.80;;;;;;;;;;5012269;28;20052;-56
2023/08/28 07:37:38;;;;;;;2.15;0.82;;;;;;;;;;5012098;28;20384;-58
2023/08/28 07:40:05;;;;;;;1.40;0.60;;;;;;;;;;5012071;28;20037;-58
2023/08/28 07:42:35;;;;;;;4.00;0.85;;;;;;;;;;5011916;28;20431;-56
2023/08/28 07:45:02;;;;;;;0.63;0.60;;;;;;;;;;5011929;28;20026;-58
2023/08/28 07:47:29;;;;;;;1.88;0.90;;;;;;;;;;5011778;28;20052;-57
2023/08/28 07:49:56;;;;;;;1.77;0.80;;;;;;;;;;5011918;28;20612;-58
2023/08/28 07:52:23;;;;;;;1.27;0.65;;;;;;;;;;5011867;28;20021;-55
2023/08/28 07:54:50;;;;;;;2.53;0.82;;;;;;;;;;5011978;28;20488;-57
2023/08/28 07:57:21;;;;;;;1.30;0.57;;;;;;;;;;5012036;28;20164;-57
2023/08/28 07:59:48;;;;;;;1.42;0.70;;;;;;;;;;5011763;28;20687;-60
2023/08/28 08:02:15;;;;;;;2.38;0.57;;;;;;;;;;5011810;28;20042;-58
2023/08/28 08:04:42;;;;;;;4.00;0.98;;;;;;;;;;5011884;28;20548;-56
2023/08/28 08:07:09;;;;;;;4.47;0.70;;;;;;;;;;5011862;28;20030;-59
2023/08/28 08:09:36;;;;;;;2.20;0.85;;;;;;;;;;5015133;28;20064;-56
2023/08/28 08:12:03;;;;;;;3.35;0.88;;;;;;;;;;5015758;28;20037;-56
2023/08/28 08:14:30;;;;;;;2.03;0.80;;;;;;;;;;5015799;28;20032;-58
2023/08/28 08:16:57;;;;;;;2.28;0.70;;;;;;;;;;5015797;28;20032;-57
2023/08/28 08:19:23;;;;;;;4.05;0.70;;;;;;;;;;5015656;28;20041;-57
2023/08/28 08:21:50;;;;;;;3.15;0.68;;;;;;;;;;5015540;28;20113;-56
2023/08/28 08:24:18;;;;;;;3.13;0.70;;;;;;;;;;5015584;28;20022;-56
2023/08/28 08:26:45;;;;;;;2.30;0.88;;;;;;;;;;5015592;28;20129;-55
2023/08/28 08:29:13;;;;;;;1.52;0.75;;;;;;;;;;5164391;23;20077;-45
2023/08/28 08:31:40;;;;;;;1.88;0.63;;;;;;;;;;5015164;28;20042;-43
2023/08/28 08:34:07;;;;;;;2.08;0.80;;;;;;;;;;5015477;28;20037;-46
2023/08/28 08:36:34;;;;;;;4.95;0.82;;;;;;;;;;5015352;28;20076;-43
2023/08/28 08:39:01;;;;;;;3.83;0.82;;;;;;;;;;5015012;28;20405;-45
2023/08/28 08:41:28;;;;;;;4.72;0.80;;;;;;;;;;5015294;28;20026;-42
2023/08/28 08:43:55;;;;;;;3.08;0.85;;;;;;;;;;5015348;28;20113;-45
2023/08/28 08:46:22;;;;;;;4.47;0.77;;;;;;;;;;5015212;28;20022;-44
2023/08/28 08:48:50;;;;;;;2.40;0.93;;;;;;;;;;5015082;28;20025;-45
2023/08/28 08:51:19;;;;;;;2.38;0.52;;;;;;;;;;5015197;28;20045;-44
2023/08/28 08:54:03;;;;;;;4.03;0.98;;;;;;;;;;5014328;28;20503;-44
2023/08/28 08:56:33;;;;;;;2.28;0.60;;;;;;;;;;5014957;28;20109;-43
2023/08/28 08:59:00;;;;;;;4.75;0.93;;;;;;;;;;5014743;28;20091;-44
2023/08/28 09:01:27;;;;;;;2.97;0.70;;;;;;;;;;5014919;28;20785;-44
2023/08/28 09:03:54;;;;;;;3.65;0.80;;;;;;;;;;5013434;28;20030;-44
2023/08/28 09:06:22;;;;;;;3.80;0.93;;;;;;;;;;5014094;28;20480;-43
2023/08/28 09:08:49;;;;;;;7.78;0.90;;;;;;;;;;5014634;28;20037;-45
2023/08/28 09:11:16;;;;;;;12.32;1.42;;;;;;;;;;5014334;28;20022;-44
2023/08/28 09:13:43;;;;;;;8.23;1.38;;;;;;;;;;5013968;28;20037;-43
2023/08/28 09:16:11;;;;;;;8.88;1.10;;;;;;;;;;5014516;28;20026;-42
2023/08/28 09:18:38;;;;;;;4.03;0.80;;;;;;;;;;5014324;28;20109;-43
2023/08/28 09:21:12;;;;;;;9.20;1.10;;;;;;;;;;5012625;28;20064;-43
2023/08/28 09:23:44;;;;;;;9.65;1.00;;;;;;;;;;5012100;28;20866;-44
2023/08/28 09:26:14;;;;;;;3.47;0.95;;;;;;;;;;5012984;28;20472;-43
2023/08/28 09:28:42;;;;;;;9.07;1.20;;;;;;;;;;5013015;28;20026;-44
2023/08/28 09:31:09;;;;;;;6.13;0.85;;;;;;;;;;5012573;28;20029;-44
2023/08/28 09:33:44;;;;;;;5.65;1.00;;;;;;;;;;5013213;28;20033;-44
2023/08/28 09:36:16;;;;;;;4.85;1.13;;;;;;;;;;5010982;28;20430;-43
2023/08/28 09:38:43;;;;;;;4.50;1.07;;;;;;;;;;5012354;28;20121;-44
2023/08/28 09:41:10;;;;;;;4.85;1.10;;;;;;;;;;5012780;28;20042;-43
2023/08/28 09:43:38;;;;;;;5.05;1.10;;;;;;;;;;5013289;28;20037;-43
2023/08/28 09:46:05;;;;;;;5.25;1.00;;;;;;;;;;5011668;28;20124;-42
2023/08/28 09:48:33;;;;;;;9.93;1.63;;;;;;;;;;5013942;28;20018;-42
2023/08/28 09:51:07;;;;;;;10.52;1.30;;;;;;;;;;5013980;28;20042;-41
2023/08/28 09:53:34;;;;;;;6.00;1.13;;;;;;;;;;5013901;28;20030;-42
2023/08/28 09:56:02;;;;;;;5.32;1.10;;;;;;;;;;5013884;28;20427;-42
2023/08/28 09:58:29;;;;;;;8.93;1.20;;;;;;;;;;5013535;28;20038;-42
2023/08/28 10:00:57;;;;;;;11.45;1.35;;;;;;;;;;5013685;28;20037;-42
2023/08/28 10:03:25;;;;;;;11.88;1.20;;;;;;;;;;5013144;28;20030;-41
2023/08/28 10:05:53;;;;;;;10.98;1.38;;;;;;;;;;5007379;28;20470;-43
2023/08/28 10:08:20;;;;;;;5.88;1.10;;;;;;;;;;5013497;28;20053;-43
2023/08/28 10:10:48;;;;;;;7.95;1.00;;;;;;;;;;5013384;28;20026;-42
2023/08/28 10:13:16;;;;;;;8.07;1.17;;;;;;;;;;5005972;28;20365;-43
2023/08/28 10:15:53;;;;;;;7.65;1.20;;;;;;;;;;5011697;28;20034;-42
2023/08/28 10:18:26;;;;;;;7.82;1.35;;;;;;;;;;5013318;28;20530;-42
2023/08/28 10:20:54;;;;;;;4.78;1.20;;;;;;;;;;5013504;28;20037;-43
2023/08/28 10:23:22;;;;;;;7.63;1.60;;;;;;;;;;5013251;28;20030;-42
2023/08/28 10:25:50;;;;;;;7.68;1.20;;;;;;;;;;5012560;28;20022;-42
2023/08/28 10:28:18;;;;;;;3.83;0.95;;;;;;;;;;5011511;28;20056;-42
2023/08/28 10:30:46;;;;;;;7.40;1.10;;;;;;;;;;5001889;28;20412;-41
2023/08/28 10:33:15;;;;;;;6.28;1.25;;;;;;;;;;5012233;28;20018;-42
2023/08/28 10:35:42;;;;;;;4.35;0.95;;;;;;;;;;5015285;28;20061;-41
2023/08/28 10:38:10;;;;;;;6.38;1.25;;;;;;;;;;5015058;28;20029;-41
2023/08/28 10:40:37;;;;;;;5.30;1.08;;;;;;;;;;5011693;28;20091;-41
2023/08/28 10:43:05;;;;;;;7.07;1.05;;;;;;;;;;5024308;28;20033;-41
2023/08/28 10:45:35;;;;;;;19.38;2.10;;;;;;;;;;5012916;28;20022;-45
2023/08/28 10:48:03;;;;;;;7.80;1.42;;;;;;;;;;5012932;28;20029;-41
2023/08/28 10:50:37;;;;;;;4.07;1.02;;;;;;;;;;5011361;28;20495;-42
2023/08/28 10:53:04;;;;;;;14.25;1.15;;;;;;;;;;5011125;28;20037;-42
2023/08/28 10:55:32;;;;;;;6.70;1.33;;;;;;;;;;5012686;28;20098;-43
2023/08/28 10:58:03;;;;;;;8.30;1.55;;;;;;;;;;5027667;28;20424;-42
2023/08/28 11:00:30;;;;;;;8.30;1.08;;;;;;;;;;5010992;28;20503;-42
2023/08/28 11:03:14;;;;;;;3.95;1.10;;;;;;;;;;5010688;28;20076;-42
2023/08/28 11:05:42;;;;;;;12.23;1.90;;;;;;;;;;5011813;28;20030;-42
2023/08/28 11:08:11;;;;;;;9.80;1.58;;;;;;;;;;5011006;28;20022;-41
2023/08/28 11:10:44;;;;;;;12.00;1.52;;;;;;;;;;5010627;28;20108;-41
2023/08/28 11:13:19;;;;;;;6.78;1.30;;;;;;;;;;5010899;28;20037;-42
2023/08/28 11:15:48;;;;;;;4.70;1.08;;;;;;;;;;5012416;28;20033;-41
2023/08/28 11:18:15;;;;;;;6.43;1.05;;;;;;;;;;5012141;28;20511;-40
2023/08/28 11:20:42;;;;;;;3.92;1.13;;;;;;;;;;5010557;28;20030;-41
2023/08/28 11:23:09;;;;;;;6.05;1.00;;;;;;;;;;5010388;28;20037;-42
2023/08/28 11:25:41;;;;;;;4.22;0.93;;;;;;;;;;5009405;28;20150;-41
2023/08/28 11:28:29;;;;;;;8.40;0.80;;;;;;;;;;5009576;28;20032;-40
2023/08/28 11:31:02;;;;;;;7.25;1.20;;;;;;;;;;5007946;28;20053;-41
2023/08/28 11:33:35;;;;;;;4.63;1.17;;;;;;;;;;5009620;28;20022;-42
2023/08/28 11:36:03;;;;;;;11.60;1.30;;;;;;;;;;5009882;28;20160;-41
2023/08/28 11:38:31;;;;;;;10.00;1.23;;;;;;;;;;5011034;28;20041;-41
2023/08/28 11:41:05;;;;;;;6.13;1.00;;;;;;;;;;5009302;28;20810;-41
2023/08/28 11:43:35;;;;;;;4.53;1.30;;;;;;;;;;5006810;28;20726;-41
2023/08/28 11:46:03;;;;;;;13.77;2.13;;;;;;;;;;5007954;28;20503;-41
2023/08/28 11:48:37;;;;;;;15.88;2.00;;;;;;;;;;5010656;28;20029;-41
2023/08/28 11:51:05;;;;;;;13.98;2.03;;;;;;;;;;5008660;28;20105;-41
2023/08/28 11:53:33;;;;;;;10.90;1.92;;;;;;;;;;5010617;28;20160;-41
2023/08/28 11:56:01;;;;;;;10.50;2.22;;;;;;;;;;5011657;28;20041;-41
2023/08/28 11:58:28;;;;;;;16.25;2.42;;;;;;;;;;5010095;28;20038;-41
2023/08/28 12:00:55;;;;;;;20.52;2.20;;;;;;;;;;5010736;28;20026;-41
2023/08/28 12:03:22;;;;;;;19.85;2.17;;;;;;;;;;5009998;28;20029;-41
2023/08/28 12:05:49;;;;;;;15.55;2.22;;;;;;;;;;5011812;28;20097;-41
2023/08/28 12:08:16;;;;;;;13.48;1.67;;;;;;;;;;5011668;28;20100;-41
2023/08/28 12:10:44;;;;;;;15.85;2.10;;;;;;;;;;5009503;28;20026;-42
2023/08/28 12:13:11;;;;;;;17.48;2.22;;;;;;;;;;5011121;28;20022;-42
2023/08/28 12:15:38;;;;;;;20.15;2.40;;;;;;;;;;5011553;28;20037;-41
2023/08/28 12:18:06;;;;;;;16.23;1.95;;;;;;;;;;5010591;28;20480;-41
2023/08/28 12:20:37;;;;;;;17.77;2.10;;;;;;;;;;5008471;28;20025;-41
2023/08/28 12:23:04;;;;;;;19.38;2.38;;;;;;;;;;5008581;28;20029;-41
2023/08/28 12:25:32;;;;;;;20.42;2.05;;;;;;;;;;5008050;28;20072;-41
2023/08/28 12:28:07;;;;;;;30.73;3.60;;;;;;;;;;5010530;28;20029;-41
2023/08/28 12:30:35;;;;;;;37.97;6.53;;;;;;;;;;5010623;28;20076;-41
2023/08/28 12:33:05;;;;;;;22.52;3.53;;;;;;;;;;5010839;28;20428;-41
2023/08/28 12:35:39;;;;;;;31.25;4.25;;;;;;;;;;5008909;28;20383;-41
2023/08/28 12:38:07;;;;;;;27.58;3.65;;;;;;;;;;5010803;28;20124;-41
2023/08/28 12:40:35;;;;;;;30.67;4.03;;;;;;;;;;5010575;28;20034;-41
2023/08/28 12:43:03;;;;;;;29.58;4.40;;;;;;;;;;5009505;28;20105;-41
2023/08/28 12:45:33;;;;;;;22.67;4.05;;;;;;;;;;5011234;28;20379;-41
2023/08/28 12:48:00;;;;;;;24.88;3.40;;;;;;;;;;5010711;28;20403;-41
2023/08/28 12:50:27;;;;;;;15.15;3.22;;;;;;;;;;5010232;28;20040;-41
2023/08/28 12:52:54;;;;;;;25.00;3.67;;;;;;;;;;5010627;28;20036;-42
2023/08/28 12:55:21;;;;;;;13.73;3.30;;;;;;;;;;5011508;28;20030;-41
2023/08/28 12:57:48;;;;;;;20.58;3.60;;;;;;;;;;5014552;28;20018;-41
2023/08/28 13:00:16;;;;;;;22.00;3.08;;;;;;;;;;5012717;28;20104;-41
2023/08/28 13:02:44;;;;;;;19.73;3.10;;;;;;;;;;5013260;28;20080;-41
2023/08/28 13:05:11;;;;;;;14.10;2.88;;;;;;;;;;5012108;28;20065;-41
2023/08/28 13:07:39;;;;;;;9.55;2.40;;;;;;;;;;5014305;28;20103;-41
2023/08/28 13:10:06;;;;;;;17.60;3.00;;;;;;;;;;5013889;28;20482;-41
2023/08/28 13:12:33;;;;;;;17.77;3.25;;;;;;;;;;5013376;28;20029;-41
2023/08/28 13:15:02;;;;;;;11.90;2.78;;;;;;;;;;5013881;28;20041;-41
2023/08/28 13:17:29;;;;;;;22.58;3.35;;;;;;;;;;5000465;28;20025;-41
2023/08/28 13:19:56;;;;;;;15.80;3.28;;;;;;;;;;5010924;28;20034;-41
2023/08/28 13:22:23;;;;;;;20.23;2.83;;;;;;;;;;5014067;28;20069;-42
2023/08/28 13:24:50;;;;;;;34.50;3.20;;;;;;;;;;5009023;28;20484;-41
2023/08/28 13:27:17;;;;;;;33.05;3.70;;;;;;;;;;4932566;28;20038;-40
2023/08/28 13:29:44;;;;;;;26.63;2.78;;;;;;;;;;5010299;28;20042;-41
2023/08/28 13:32:11;;;;;;;28.65;3.47;;;;;;;;;;5013485;28;20022;-41
2023/08/28 13:34:38;;;;;;;43.13;3.63;;;;;;;;;;5013628;28;20022;-41
2023/08/28 13:37:05;;;;;;;25.08;3.17;;;;;;;;;;5013803;28;20043;-42
2023/08/28 13:39:33;;;;;;;33.75;3.90;;;;;;;;;;5010526;28;20037;-41
2023/08/28 13:42:00;;;;;;;35.40;3.67;;;;;;;;;;5012246;28;20029;-40
2023/08/28 13:44:27;;;;;;;31.60;3.65;;;;;;;;;;5013131;28;20468;-40
2023/08/28 13:46:54;;;;;;;32.40;4.07;;;;;;;;;;5011903;28;20030;-41
2023/08/28 13:49:21;;;;;;;35.95;3.38;;;;;;;;;;5010815;28;20064;-41
2023/08/28 13:51:51;;;;;;;39.10;4.10;;;;;;;;;;5010508;28;20112;-41
2023/08/28 13:54:18;;;;;;;43.92;4.38;;;;;;;;;;5011743;28;20030;-41
2023/08/28 13:56:45;;;;;;;57.72;5.65;;;;;;;;;;5012613;28;20029;-41
2023/08/28 13:59:12;;;;;;;42.35;5.20;;;;;;;;;;5012937;28;20042;-41
2023/08/28 14:01:42;;;;;;;63.42;5.63;;;;;;;;;;5011158;28;20665;-41
2023/08/28 14:04:10;;;;;;;71.35;6.38;;;;;;;;;;5010832;28;20083;-41
2023/08/28 14:06:37;;;;;;;88.07;7.15;;;;;;;;;;5003163;28;20061;-41
2023/08/28 14:09:04;;;;;;;85.78;6.85;;;;;;;;;;5012146;28;20034;-41
2023/08/28 14:11:31;;;;;;;93.40;6.18;;;;;;;;;;5005314;28;20026;-43
2023/08/28 14:13:58;;;;;;;78.07;6.40;;;;;;;;;;5011206;28;20095;-40
2023/08/28 14:16:25;;;;;;;84.15;6.95;;;;;;;;;;5012931;28;20029;-40
2023/08/28 14:18:52;;;;;;;80.45;5.78;;;;;;;;;;5011120;28;20034;-41
2023/08/28 14:21:19;;;;;;;66.63;5.78;;;;;;;;;;5011614;28;20026;-40
2023/08/28 14:23:46;;;;;;;70.13;6.68;;;;;;;;;;5012327;28;20026;-41
2023/08/28 14:26:13;;;;;;;76.97;6.93;;;;;;;;;;5012710;28;20084;-41
2023/08/28 14:28:40;;;;;;;67.60;5.63;;;;;;;;;;5010771;28;20507;-40
2023/08/28 14:31:07;;;;;;;65.93;6.10;;;;;;;;;;5012289;28;20037;-41
2023/08/28 14:33:36;;;;;;;47.90;4.88;;;;;;;;;;5010779;28;20033;-43
2023/08/28 14:36:03;;;;;;;82.15;6.97;;;;;;;;;;5012014;28;20048;-41
2023/08/28 14:38:30;;;;;;;83.13;6.70;;;;;;;;;;5012359;28;20046;-42